Time;durP1;ratioP1;P1;durP2;ratioP2;P2;SDS_P1;SDS_P2;PMS_P1;PMS_P2;Temp;Humidity;BMP_temperature;BMP_pressure;BME280_temperature;BME280_humidity;BME280_pressure;Samples;Min_cycle;Max_cycle;Signal;HPM_P1;HPM_P2
2023/03/25 00:01:46;;;;;;;;;;;;;;;13.55;52.31;99435.97;5093329;28;19912;-43
2023/03/25 00:04:12;;;;;;;;;;;;;;;13.50;52.26;99435.84;5093371;28;19912;-42
2023/03/25 00:06:38;;;;;;;;;;;;;;;13.38;52.87;99437.66;5093358;28;19938;-42
2023/03/25 00:09:03;;;;;;;;;;;;;;;13.40;52.75;99443.59;5093228;28;19916;-42
2023/03/25 00:11:28;;;;;;;;;;;;;;;12.77;54.01;99440.31;5092998;28;20269;-42
2023/03/25 00:13:53;;;;;;;;;;;;;;;12.49;55.35;99436.38;5093037;28;19963;-42
2023/03/25 00:16:19;;;;;;;;;;;;;;;12.38;55.40;99434.44;5092793;28;19927;-42
2023/03/25 00:18:46;;;;;;;;;;;;;;;12.75;54.68;99430.94;5092783;28;19912;-42
2023/03/25 00:21:12;;;;;;;;;;;;;;;12.75;54.33;99431.72;5092722;28;19919;-42
2023/03/25 00:23:38;;;;;;;;;;;;;;;12.94;53.99;99432.50;5092890;28;19924;-42
2023/03/25 00:26:04;;;;;;;;;;;;;;;13.00;53.22;99426.25;5092755;28;20303;-42
2023/03/25 00:28:30;;;;;;;;;;;;;;;12.94;54.08;99421.81;5092773;28;20402;-42
2023/03/25 00:31:00;;;;;;;;;;;;;;;13.03;53.41;99427.69;5092600;28;20472;-43
2023/03/25 00:33:26;;;;;;;;;;;;;;;12.89;53.59;99429.72;5092559;28;20417;-42
2023/03/25 00:35:53;;;;;;;;;;;;;;;12.91;53.38;99417.75;5092419;28;20258;-42
2023/03/25 00:38:19;;;;;;;;;;;;;;;12.73;53.57;99419.66;5092732;28;19968;-43
2023/03/25 00:40:45;;;;;;;;;;;;;;;12.85;53.54;99416.00;5092242;28;20010;-42
2023/03/25 00:43:11;;;;;;;;;;;;;;;13.04;53.15;99416.78;5092320;28;20363;-43
2023/03/25 00:45:36;;;;;;;;;;;;;;;12.90;53.59;99407.31;5091753;28;20405;-43
2023/03/25 00:48:01;;;;;;;;;;;;;;;12.83;53.87;99402.06;5091594;28;20291;-43
2023/03/25 00:50:27;;;;;;;;;;;;;;;12.98;53.43;99403.50;5092343;28;20006;-43
2023/03/25 00:52:55;;;;;;;;;;;;;;;13.02;53.12;99410.84;5092346;28;20006;-42
2023/03/25 00:55:20;;;;;;;;;;;;;;;12.92;53.78;99405.22;5092221;28;20422;-42
2023/03/25 00:57:47;;;;;;;;;;;;;;;12.97;53.67;99413.38;5091918;28;19948;-42
2023/03/25 01:00:15;;;;;;;;;;;;;;;13.05;53.06;99410.38;5092362;28;20364;-42
2023/03/25 01:02:40;;;;;;;;;;;;;;;12.97;53.70;99400.03;5092051;28;19920;-43
2023/03/25 01:05:06;;;;;;;;;;;;;;;12.81;54.26;99404.16;5092099;28;19921;-43
2023/03/25 01:07:31;;;;;;;;;;;;;;;12.89;54.05;99411.84;5091803;28;19923;-43
2023/03/25 01:09:57;;;;;;;;;;;;;;;12.94;53.68;99408.47;5091983;28;19912;-42
2023/03/25 01:12:23;;;;;;;;;;;;;;;12.71;54.42;99398.53;5091774;28;19954;-43
2023/03/25 01:14:49;;;;;;;;;;;;;;;12.65;54.78;99402.09;5091725;28;19923;-43
2023/03/25 01:17:14;;;;;;;;;;;;;;;12.17;56.35;99393.03;5091633;28;19912;-42
2023/03/25 01:19:39;;;;;;;;;;;;;;;12.57;54.74;99389.06;5091695;28;19959;-43
2023/03/25 01:22:05;;;;;;;;;;;;;;;12.57;55.44;99387.22;5091785;28;19923;-42
2023/03/25 01:24:30;;;;;;;;;;;;;;;12.57;55.00;99381.88;5091841;28;20019;-42
2023/03/25 01:26:56;;;;;;;;;;;;;;;12.38;55.90;99385.59;5091658;28;19912;-42
2023/03/25 01:29:21;;;;;;;;;;;;;;;12.46;55.63;99382.63;5091530;28;19951;-50
2023/03/25 01:31:47;;;;;;;;;;;;;;;12.58;55.04;99370.13;5091419;28;20398;-42
2023/03/25 01:34:13;;;;;;;;;;;;;;;12.41;55.92;99380.59;5091580;28;19919;-42
2023/03/25 01:36:38;;;;;;;;;;;;;;;12.60;54.92;99378.72;5091515;28;19916;-42
2023/03/25 01:39:07;;;;;;;;;;;;;;;12.64;54.91;99371.09;5091245;28;20003;-43
2023/03/25 01:41:33;;;;;;;;;;;;;;;12.51;55.24;99364.09;5091208;28;19920;-42
2023/03/25 01:44:02;;;;;;;;;;;;;;;12.37;55.45;99371.44;5091120;28;19918;-41
2023/03/25 01:46:27;;;;;;;;;;;;;;;12.33;56.08;99367.59;5091540;28;19937;-41
2023/03/25 01:48:53;;;;;;;;;;;;;;;12.10;56.65;99365.59;5090767;28;20011;-41
2023/03/25 01:51:24;;;;;;;;;;;;;;;12.19;57.05;99356.25;5091036;28;19920;-43
2023/03/25 01:53:52;;;;;;;;;;;;;;;12.21;57.10;99359.53;5091227;28;19939;-42
2023/03/25 01:56:19;;;;;;;;;;;;;;;12.38;56.56;99357.06;5091165;28;19944;-42
2023/03/25 01:58:44;;;;;;;;;;;;;;;12.23;56.54;99352.09;5090841;28;20003;-42
2023/03/25 02:01:12;;;;;;;;;;;;;;;12.17;57.19;99346.88;5090922;28;19951;-42
2023/03/25 02:03:38;;;;;;;;;;;;;;;12.36;56.48;99350.34;5091056;28;19919;-42
2023/03/25 02:06:07;;;;;;;;;;;;;;;12.17;57.09;99341.53;5091095;28;19976;-43
2023/03/25 02:08:37;;;;;;;;;;;;;;;12.02;57.47;99340.03;5090940;28;19916;-42
2023/03/25 02:11:02;;;;;;;;;;;;;;;12.13;57.42;99328.63;5090946;28;19919;-42
2023/03/25 02:13:28;;;;;;;;;;;;;;;12.18;57.41;99333.28;5090820;28;20304;-42
2023/03/25 02:16:09;;;;;;;;;;;;;;;12.23;57.40;99330.75;5090936;28;19970;-42
2023/03/25 02:18:57;;;;;;;;;;;;;;;12.33;56.83;99338.22;5091147;28;19913;-42
2023/03/25 02:21:37;;;;;;;;;;;;;;;12.42;56.51;99336.88;5090930;28;19942;-42
2023/03/25 02:24:09;;;;;;;;;;;;;;;12.45;55.92;99336.44;5090571;28;19925;-42
2023/03/25 02:26:55;;;;;;;;;;;;;;;12.46;55.92;99339.94;5090712;28;19912;-42
2023/03/25 02:29:26;;;;;;;;;;;;;;;12.40;56.00;99333.63;5090802;28;19920;-43
2023/03/25 02:32:10;;;;;;;;;;;;;;;12.44;55.86;99329.47;5090814;28;20007;-43
2023/03/25 02:34:40;;;;;;;;;;;;;;;12.38;56.71;99327.72;5090881;28;19919;-42
2023/03/25 02:37:05;;;;;;;;;;;;;;;12.23;56.66;99324.63;5090573;28;19919;-43
2023/03/25 02:39:46;;;;;;;;;;;;;;;12.02;56.23;99329.38;5090560;28;19912;-42
2023/03/25 02:42:29;;;;;;;;;;;;;;;12.18;56.45;99321.81;5090667;28;20608;-42
2023/03/25 02:44:57;;;;;;;;;;;;;;;12.09;57.27;99335.44;5090592;28;20299;-42
2023/03/25 02:47:24;;;;;;;;;;;;;;;12.19;57.13;99328.78;5090755;28;20007;-42
2023/03/25 02:49:59;;;;;;;;;;;;;;;12.11;56.75;99321.91;5090839;28;19919;-42
2023/03/25 02:52:36;;;;;;;;;;;;;;;12.04;56.99;99319.28;5090619;28;19951;-41
2023/03/25 02:55:04;;;;;;;;;;;;;;;12.05;57.29;99318.28;5090455;28;19912;-42
2023/03/25 02:57:31;;;;;;;;;;;;;;;11.98;57.79;99314.88;5090389;28;19912;-41
2023/03/25 02:59:58;;;;;;;;;;;;;;;11.86;57.95;99314.75;5090319;28;19916;-41
2023/03/25 03:02:25;;;;;;;;;;;;;;;11.89;57.86;99319.66;5090308;28;20380;-42
2023/03/25 03:04:52;;;;;;;;;;;;;;;12.06;57.14;99316.41;5090615;28;19923;-42
2023/03/25 03:07:23;;;;;;;;;;;;;;;12.05;57.42;99307.59;5090708;28;19972;-42
2023/03/25 03:09:55;;;;;;;;;;;;;;;11.88;57.76;99301.19;5091696;28;19919;-42
2023/03/25 03:12:30;;;;;;;;;;;;;;;11.97;57.16;99294.56;5094287;28;19912;-41
2023/03/25 03:14:55;;;;;;;;;;;;;;;12.05;56.96;99294.28;5093994;28;19912;-42
2023/03/25 03:17:26;;;;;;;;;;;;;;;11.92;57.04;99294.44;5094000;28;19919;-41
2023/03/25 03:19:54;;;;;;;;;;;;;;;11.92;57.01;99299.75;5094029;28;19919;-42
2023/03/25 03:22:20;;;;;;;;;;;;;;;12.02;57.09;99300.03;5094017;28;20002;-42
2023/03/25 03:24:56;;;;;;;;;;;;;;;12.00;57.28;99298.66;5093974;28;20437;-41
2023/03/25 03:27:32;;;;;;;;;;;;;;;11.97;57.33;99289.22;5094113;28;19916;-41
2023/03/25 03:30:14;;;;;;;;;;;;;;;11.89;57.86;99297.50;5093819;28;19912;-42
2023/03/25 03:32:44;;;;;;;;;;;;;;;11.78;57.67;99290.25;5094070;28;20019;-43
2023/03/25 03:35:30;;;;;;;;;;;;;;;11.89;57.43;99281.50;5093657;28;19912;-43
2023/03/25 03:38:00;;;;;;;;;;;;;;;11.68;57.67;99280.09;5093854;28;19912;-42
2023/03/25 03:40:27;;;;;;;;;;;;;;;11.77;57.64;99286.75;5093643;28;19912;-43
2023/03/25 03:43:04;;;;;;;;;;;;;;;11.70;57.33;99286.81;5093795;28;20031;-43
2023/03/25 03:45:50;;;;;;;;;;;;;;;11.79;57.34;99286.56;5093521;28;20000;-41
2023/03/25 03:48:22;;;;;;;;;;;;;;;11.90;57.78;99296.50;5093361;28;19916;-41
2023/03/25 03:51:01;;;;;;;;;;;;;;;11.70;58.20;99292.16;5093151;28;19912;-42
2023/03/25 03:53:33;;;;;;;;;;;;;;;11.77;57.60;99293.97;5093468;28;19912;-42
2023/03/25 03:56:03;;;;;;;;;;;;;;;11.66;57.58;99292.84;5093592;28;19912;-42
2023/03/25 03:58:32;;;;;;;;;;;;;;;11.44;57.98;99290.59;5093413;28;20003;-42
2023/03/25 04:01:08;;;;;;;;;;;;;;;11.41;58.05;99288.38;5093178;28;19912;-42
2023/03/25 04:03:47;;;;;;;;;;;;;;;11.35;57.84;99282.06;5093296;28;19944;-42
2023/03/25 04:06:16;;;;;;;;;;;;;;;11.10;59.63;99284.75;5093110;28;20355;-42
2023/03/25 04:08:57;;;;;;;;;;;;;;;11.24;58.84;99287.31;5093020;28;19973;-41
2023/03/25 04:11:26;;;;;;;;;;;;;;;11.31;59.23;99294.19;5093142;28;19917;-41
2023/03/25 04:13:53;;;;;;;;;;;;;;;10.98;59.99;99288.34;5093121;28;19912;-41
2023/03/25 04:16:18;;;;;;;;;;;;;;;11.08;59.68;99285.97;5092966;28;19912;-42
2023/03/25 04:18:46;;;;;;;;;;;;;;;10.88;60.12;99281.63;5092721;28;19969;-42
2023/03/25 04:21:14;;;;;;;;;;;;;;;10.91;59.92;99288.41;5092318;28;20053;-41
2023/03/25 04:23:40;;;;;;;;;;;;;;;10.79;60.30;99288.25;5092523;28;19928;-41
2023/03/25 04:26:05;;;;;;;;;;;;;;;10.95;59.43;99297.56;5092197;28;19912;-41
2023/03/25 04:28:30;;;;;;;;;;;;;;;10.94;59.73;99291.41;5092767;28;19927;-42
2023/03/25 04:30:59;;;;;;;;;;;;;;;11.08;59.50;99302.81;5092576;28;19961;-42
2023/03/25 04:33:24;;;;;;;;;;;;;;;11.42;58.48;99305.16;5092586;28;19912;-42
2023/03/25 04:35:50;;;;;;;;;;;;;;;11.54;58.35;99312.22;5092640;28;20021;-42
2023/03/25 04:38:18;;;;;;;;;;;;;;;11.67;57.81;99297.13;5092656;28;20399;-42
2023/03/25 04:40:45;;;;;;;;;;;;;;;11.84;57.32;99297.34;5092507;28;19919;-41
2023/03/25 04:43:12;;;;;;;;;;;;;;;12.07;57.34;99308.19;5092440;28;20379;-42
2023/03/25 04:45:37;;;;;;;;;;;;;;;12.18;57.16;99301.28;5092150;28;19919;-41
2023/03/25 04:48:04;;;;;;;;;;;;;;;12.36;56.20;99304.97;5091982;28;19920;-42
2023/03/25 04:50:30;;;;;;;;;;;;;;;12.58;55.88;99306.06;5092091;28;19927;-42
2023/03/25 04:52:57;;;;;;;;;;;;;;;12.79;54.91;99307.41;5091997;28;19916;-42
2023/03/25 04:55:24;;;;;;;;;;;;;;;13.01;55.13;99312.25;5092188;28;19927;-42
2023/03/25 04:57:51;;;;;;;;;;;;;;;13.27;54.24;99311.00;5091471;28;19934;-42
2023/03/25 05:00:18;;;;;;;;;;;;;;;13.50;53.67;99312.88;5091889;28;19965;-42
2023/03/25 05:02:44;;;;;;;;;;;;;;;13.76;52.76;99311.56;5092246;28;20044;-43
2023/03/25 05:05:16;;;;;;;;;;;;;;;14.07;51.73;99323.75;5091725;28;19912;-42
2023/03/25 05:07:44;;;;;;;;;;;;;;;14.38;51.29;99297.56;5091802;28;19923;-42
2023/03/25 05:10:10;;;;;;;;;;;;;;;14.66;51.01;99302.13;5091868;28;19916;-42
2023/03/25 05:12:35;;;;;;;;;;;;;;;14.96;49.68;99302.88;5091917;28;19962;-42
2023/03/25 05:15:00;;;;;;;;;;;;;;;15.27;48.62;99298.00;5091179;28;19912;-42
2023/03/25 05:17:28;;;;;;;;;;;;;;;15.59;48.31;99307.09;5091839;28;19924;-43
2023/03/25 05:19:55;;;;;;;;;;;;;;;15.68;46.71;99307.47;5091855;28;20361;-42
2023/03/25 05:22:21;;;;;;;;;;;;;;;15.96;47.09;99303.03;5091516;28;20004;-43
2023/03/25 05:24:46;;;;;;;;;;;;;;;16.08;46.07;99294.84;5091771;28;20020;-42
2023/03/25 05:27:11;;;;;;;;;;;;;;;16.02;46.93;99302.81;5092271;28;20386;-42
2023/03/25 05:29:37;;;;;;;;;;;;;;;16.60;50.47;99313.13;5092149;28;19947;-43
2023/03/25 05:32:03;;;;;;;;;;;;;;;17.25;45.98;99307.81;5091497;28;20379;-42
2023/03/25 05:34:30;;;;;;;;;;;;;;;17.90;46.07;99312.00;5091165;28;20441;-43
2023/03/25 05:36:56;;;;;;;;;;;;;;;18.06;44.84;99317.44;5091848;28;19912;-43
2023/03/25 05:39:21;;;;;;;;;;;;;;;18.28;41.77;99307.31;5091756;28;19912;-43
2023/03/25 05:41:47;;;;;;;;;;;;;;;18.73;41.57;99303.09;5091832;28;19925;-42
2023/03/25 05:44:14;;;;;;;;;;;;;;;19.10;39.96;99302.06;5091935;28;19912;-43
2023/03/25 05:46:39;;;;;;;;;;;;;;;19.53;39.81;99293.63;5091918;28;19929;-41
2023/03/25 05:49:04;;;;;;;;;;;;;;;19.88;40.28;99291.94;5091637;28;20011;-42
2023/03/25 05:51:32;;;;;;;;;;;;;;;20.13;38.18;99295.63;5091649;28;20300;-42
2023/03/25 05:53:58;;;;;;;;;;;;;;;19.91;37.39;99292.22;5091670;28;19916;-42
2023/03/25 05:56:24;;;;;;;;;;;;;;;20.15;39.04;99293.47;5091698;28;19916;-42
2023/03/25 05:58:50;;;;;;;;;;;;;;;20.65;37.30;99303.19;5091861;28;20281;-42
2023/03/25 06:01:16;;;;;;;;;;;;;;;21.23;35.87;99299.75;5091430;28;20387;-42
2023/03/25 06:03:42;;;;;;;;;;;;;;;21.59;34.61;99296.75;5091314;28;19920;-43
2023/03/25 06:06:17;;;;;;;;;;;;;;;21.42;35.55;99299.06;5092341;28;19912;-41
2023/03/25 06:08:48;;;;;;;;;;;;;;;21.58;34.58;99295.09;5093698;28;19916;-42
2023/03/25 06:11:14;;;;;;;;;;;;;;;22.23;33.98;99302.72;5105046;28;19985;-40
2023/03/25 06:13:40;;;;;;;;;;;;;;;22.24;33.22;99311.69;5091350;28;20368;-41
2023/03/25 06:16:07;;;;;;;;;;;;;;;22.20;39.70;99311.47;5091198;28;20379;-40
2023/03/25 06:18:33;;;;;;;;;;;;;;;22.89;32.96;99297.47;5101793;28;19915;-42
2023/03/25 06:20:58;;;;;;;;;;;;;;;23.08;31.41;99311.03;5111766;28;19934;-41
2023/03/25 06:23:25;;;;;;;;;;;;;;;22.86;31.97;99302.69;5111384;28;19922;-40
2023/03/25 06:25:51;;;;;;;;;;;;;;;23.27;31.77;99302.03;5093432;28;20007;-41
2023/03/25 06:28:19;;;;;;;;;;;;;;;23.12;31.98;99301.19;5106905;28;20007;-41
2023/03/25 06:30:45;;;;;;;;;;;;;;;23.82;30.81;99296.69;5103897;28;19920;-41
2023/03/25 06:33:12;;;;;;;;;;;;;;;24.06;30.35;99290.22;5086400;28;19920;-42
2023/03/25 06:35:38;;;;;;;;;;;;;;;24.31;30.09;99286.97;5101284;28;19912;-40
2023/03/25 06:38:03;;;;;;;;;;;;;;;24.46;29.52;99285.81;5106805;28;19988;-41
2023/03/25 06:40:28;;;;;;;;;;;;;;;24.46;29.64;99296.69;5107167;28;20003;-41
2023/03/25 06:42:54;;;;;;;;;;;;;;;24.93;29.10;99291.81;5094551;28;19968;-40
2023/03/25 06:45:19;;;;;;;;;;;;;;;25.48;28.41;99289.91;5100874;28;19911;-40
2023/03/25 06:47:44;;;;;;;;;;;;;;;25.72;27.70;99284.06;5103280;28;19916;-41
2023/03/25 06:50:10;;;;;;;;;;;;;;;25.59;28.06;99287.69;5095526;28;19920;-40
2023/03/25 06:52:35;;;;;;;;;;;;;;;25.50;28.28;99287.69;5111290;28;20349;-41
2023/03/25 06:55:01;;;;;;;;;;;;;;;26.10;27.60;99291.72;5099831;28;19981;-41
2023/03/25 06:57:26;;;;;;;;;;;;;;;26.38;26.65;99291.47;5107948;28;19919;-40
2023/03/25 06:59:51;;;;;;;;;;;;;;;26.04;26.88;99299.25;5102010;28;19912;-40
2023/03/25 07:02:17;;;;;;;;;;;;;;;25.77;27.46;99292.09;5103511;28;19916;-40
2023/03/25 07:04:42;;;;;;;;;;;;;;;25.75;27.70;99292.41;5114083;28;19915;-41
2023/03/25 07:07:08;;;;;;;;;;;;;;;26.21;26.68;99293.03;5095470;28;19912;-40
2023/03/25 07:09:36;;;;;;;;;;;;;;;26.26;26.66;99292.09;5094503;28;19920;-40
2023/03/25 07:12:02;;;;;;;;;;;;;;;26.34;26.54;99285.84;5095335;28;19915;-40
2023/03/25 07:14:27;;;;;;;;;;;;;;;24.61;28.23;99289.34;5093848;28;20388;-40
2023/03/25 07:16:52;;;;;;;;;;;;;;;25.09;27.80;99286.81;5094519;28;19950;-40
2023/03/25 07:19:18;;;;;;;;;;;;;;;25.97;26.91;99288.03;5094037;28;20370;-41
2023/03/25 07:21:43;;;;;;;;;;;;;;;25.65;27.41;99287.25;5093276;28;19928;-40
2023/03/25 07:24:08;;;;;;;;;;;;;;;26.37;26.60;99287.94;5092766;28;19928;-40
2023/03/25 07:26:34;;;;;;;;;;;;;;;27.04;26.15;99283.91;5093654;28;19916;-41
2023/03/25 07:28:59;;;;;;;;;;;;;;;26.40;26.66;99284.56;5093213;28;19948;-41
2023/03/25 07:31:24;;;;;;;;;;;;;;;25.99;26.91;99277.63;5093829;28;20006;-40
2023/03/25 07:33:50;;;;;;;;;;;;;;;26.21;26.42;99281.31;5093203;28;19912;-42
2023/03/25 07:36:16;;;;;;;;;;;;;;;26.76;26.21;99275.28;5093128;28;19912;-40
2023/03/25 07:38:41;;;;;;;;;;;;;;;27.18;25.34;99280.97;5092489;28;20296;-40
2023/03/25 07:41:07;;;;;;;;;;;;;;;27.53;25.11;99277.34;5093307;28;19912;-41
2023/03/25 07:43:33;;;;;;;;;;;;;;;27.46;25.30;99270.47;5093645;28;19912;-41
2023/03/25 07:45:58;;;;;;;;;;;;;;;27.86;24.69;99269.31;5092235;28;20279;-41
2023/03/25 07:48:23;;;;;;;;;;;;;;;27.97;24.24;99259.63;5093583;28;19916;-41
2023/03/25 07:50:50;;;;;;;;;;;;;;;27.68;23.89;99263.94;5094117;28;19973;-41
2023/03/25 07:53:15;;;;;;;;;;;;;;;26.95;24.79;99268.66;5093643;28;19977;-40
2023/03/25 07:55:40;;;;;;;;;;;;;;;26.07;25.93;99259.66;5093858;28;20390;-41
2023/03/25 07:58:06;;;;;;;;;;;;;;;26.22;26.03;99258.41;5094017;28;19919;-40
2023/03/25 08:00:31;;;;;;;;;;;;;;;26.40;25.82;99260.00;5093888;28;19912;-40
2023/03/25 08:02:56;;;;;;;;;;;;;;;26.61;25.56;99219.25;5093865;28;19919;-40
2023/03/25 08:05:22;;;;;;;;;;;;;;;27.13;25.95;99255.75;5093749;28;19919;-41
2023/03/25 08:07:49;;;;;;;;;;;;;;;26.26;26.49;99253.91;5093146;28;20371;-41
2023/03/25 08:10:15;;;;;;;;;;;;;;;26.59;25.88;99243.34;5093325;28;19924;-41
2023/03/25 08:12:40;;;;;;;;;;;;;;;27.47;25.27;99244.75;5093327;28;19912;-41
2023/03/25 08:15:06;;;;;;;;;;;;;;;27.26;25.61;99231.03;5092540;28;20272;-41
2023/03/25 08:17:31;;;;;;;;;;;;;;;26.68;25.28;99235.94;5093146;28;19912;-40
2023/03/25 08:19:57;;;;;;;;;;;;;;;25.54;27.00;99226.00;5093469;28;19912;-41
2023/03/25 08:22:23;;;;;;;;;;;;;;;26.50;26.43;99237.88;5093353;28;19920;-40
2023/03/25 08:24:48;;;;;;;;;;;;;;;26.96;25.49;99237.50;5093257;28;19928;-41
2023/03/25 08:27:13;;;;;;;;;;;;;;;26.86;25.47;99242.16;5093511;28;19916;-40
2023/03/25 08:29:39;;;;;;;;;;;;;;;26.49;25.41;99238.97;5093308;28;19912;-41
2023/03/25 08:32:04;;;;;;;;;;;;;;;26.50;25.58;99237.88;5093402;28;20388;-40
2023/03/25 08:34:33;;;;;;;;;;;;;;;25.67;26.38;99237.91;5093391;28;20352;-40
2023/03/25 08:36:58;;;;;;;;;;;;;;;24.96;27.57;99244.94;5093537;28;19918;-41
2023/03/25 08:39:28;;;;;;;;;;;;;;;26.41;26.29;99239.81;5093487;28;19912;-39
2023/03/25 08:41:54;;;;;;;;;;;;;;;26.80;25.04;99238.00;5092985;28;20477;-41
2023/03/25 08:44:20;;;;;;;;;;;;;;;26.43;26.29;99243.00;5093263;28;19916;-42
2023/03/25 08:46:45;;;;;;;;;;;;;;;27.62;24.84;99224.25;5092876;28;19916;-41
2023/03/25 08:49:10;;;;;;;;;;;;;;;27.31;24.88;99227.31;5092832;28;19920;-40
2023/03/25 08:51:36;;;;;;;;;;;;;;;28.05;24.65;99233.38;5092793;28;19976;-41
2023/03/25 08:54:01;;;;;;;;;;;;;;;27.52;25.07;99221.13;5092761;28;19912;-41
2023/03/25 08:56:27;;;;;;;;;;;;;;;28.46;23.88;99213.41;5092777;28;19995;-41
2023/03/25 08:58:52;;;;;;;;;;;;;;;28.83;23.40;99204.53;5092543;28;19912;-40
2023/03/25 09:01:17;;;;;;;;;;;;;;;29.31;22.84;99194.81;5092793;28;20402;-41
2023/03/25 09:03:43;;;;;;;;;;;;;;;29.13;23.24;99204.38;5092387;28;19919;-41
2023/03/25 09:06:08;;;;;;;;;;;;;;;29.88;22.62;99200.50;5092561;28;19977;-41
2023/03/25 09:08:35;;;;;;;;;;;;;;;30.27;22.29;99193.41;5091628;28;20003;-41
2023/03/25 09:11:01;;;;;;;;;;;;;;;28.70;23.79;99176.34;5092432;28;20277;-41
2023/03/25 09:13:26;;;;;;;;;;;;;;;28.56;23.85;99173.91;5091313;28;20364;-41
2023/03/25 09:15:51;;;;;;;;;;;;;;;28.82;23.24;99170.06;5091730;28;20275;-41
2023/03/25 09:18:16;;;;;;;;;;;;;;;28.70;23.38;99167.31;5092125;28;19912;-41
2023/03/25 09:20:42;;;;;;;;;;;;;;;28.71;23.94;99158.78;5090721;28;19912;-41
2023/03/25 09:23:08;;;;;;;;;;;;;;;28.74;23.67;99157.28;5090824;28;19939;-41
2023/03/25 09:25:34;;;;;;;;;;;;;;;28.62;23.62;99149.88;5090463;28;19932;-41
2023/03/25 09:27:59;;;;;;;;;;;;;;;28.96;23.28;99145.94;5090926;28;19916;-41
2023/03/25 09:30:24;;;;;;;;;;;;;;;29.06;22.70;99144.69;5090963;28;20013;-41
2023/03/25 09:32:50;;;;;;;;;;;;;;;28.65;23.39;99139.03;5091561;28;20388;-40
2023/03/25 09:35:15;;;;;;;;;;;;;;;28.86;23.25;99143.63;5092077;28;20394;-40
2023/03/25 09:37:41;;;;;;;;;;;;;;;28.87;23.05;99141.69;5092025;28;20372;-43
2023/03/25 09:40:08;;;;;;;;;;;;;;;28.38;24.32;99136.88;5091382;28;19909;-41
2023/03/25 09:42:40;;;;;;;;;;;;;;;28.41;24.41;99139.72;5091876;28;19912;-41
2023/03/25 09:45:23;;;;;;;;;;;;;;;27.09;27.05;99119.91;5090874;28;20332;-43
2023/03/25 09:47:54;;;;;;;;;;;;;;;27.28;30.95;99135.09;5090993;28;19956;-44
2023/03/25 09:50:19;;;;;;;;;;;;;;;26.78;28.87;99133.84;5090757;28;19943;-42
2023/03/25 09:52:45;;;;;;;;;;;;;;;27.42;27.38;99126.69;5090867;28;19912;-42
2023/03/25 09:55:14;;;;;;;;;;;;;;;28.12;25.27;99121.53;5090636;28;19965;-42
2023/03/25 09:57:45;;;;;;;;;;;;;;;27.38;26.09;99117.53;5090648;28;19912;-42
2023/03/25 10:00:15;;;;;;;;;;;;;;;27.53;26.55;99114.22;5090441;28;19916;-42
2023/03/25 10:03:10;;;;;;;;;;;;;;;27.16;26.43;99104.94;5090757;28;19912;-41
2023/03/25 10:05:46;;;;;;;;;;;;;;;26.64;27.54;99095.84;5070552;28;19919;-41
2023/03/25 10:08:15;;;;;;;;;;;;;;;27.20;26.55;99095.75;5090596;28;19969;-43
2023/03/25 10:10:58;;;;;;;;;;;;;;;25.31;28.56;99091.84;5090511;28;19918;-40
2023/03/25 10:13:35;;;;;;;;;;;;;;;25.52;28.77;99078.44;5090525;28;19922;-40
2023/03/25 10:16:19;;;;;;;;;;;;;;;26.16;28.15;99068.81;5090470;28;19916;-43
2023/03/25 10:19:03;;;;;;;;;;;;;;;26.23;27.48;99064.47;5090442;28;19912;-42
2023/03/25 10:21:37;;;;;;;;;;;;;;;26.06;27.74;99065.28;5090621;28;19923;-41
2023/03/25 10:24:02;;;;;;;;;;;;;;;26.60;27.57;99053.97;5090583;28;19924;-41
2023/03/25 10:26:48;;;;;;;;;;;;;;;25.86;28.02;99044.16;5090544;28;19919;-41
2023/03/25 10:29:21;;;;;;;;;;;;;;;26.79;27.43;99034.47;5090292;28;19916;-41
2023/03/25 10:31:51;;;;;;;;;;;;;;;27.21;26.67;99031.03;5090380;28;19954;-42
2023/03/25 10:34:18;;;;;;;;;;;;;;;27.52;26.64;99036.13;5090660;28;19912;-41
2023/03/25 10:36:48;;;;;;;;;;;;;;;27.95;25.98;99021.31;5090405;28;19919;-41
2023/03/25 10:39:17;;;;;;;;;;;;;;;27.61;26.86;99014.19;5090335;28;19920;-42
2023/03/25 10:41:45;;;;;;;;;;;;;;;28.25;26.66;99021.97;5090294;28;20248;-43
2023/03/25 10:44:11;;;;;;;;;;;;;;;27.06;27.89;99018.75;5090611;28;19916;-41
2023/03/25 10:46:46;;;;;;;;;;;;;;;26.80;28.00;99008.78;5090381;28;19918;-42
2023/03/25 10:49:16;;;;;;;;;;;;;;;27.34;27.45;99002.69;5090323;28;19919;-42
2023/03/25 10:51:41;;;;;;;;;;;;;;;27.31;27.27;99000.63;5089929;28;19916;-41
2023/03/25 10:54:09;;;;;;;;;;;;;;;26.79;27.75;98998.19;5090061;28;20312;-41
2023/03/25 10:56:38;;;;;;;;;;;;;;;26.00;28.82;98986.75;5089849;28;19912;-41
2023/03/25 10:59:21;;;;;;;;;;;;;;;25.90;29.79;98996.84;5090267;28;20419;-43
2023/03/25 11:01:47;;;;;;;;;;;;;;;27.31;27.41;98989.69;5088803;28;19912;-42
2023/03/25 11:04:15;;;;;;;;;;;;;;;27.62;27.26;98980.25;5090233;28;19918;-41
2023/03/25 11:06:44;;;;;;;;;;;;;;;27.46;26.85;98977.34;5090076;28;19912;-42
2023/03/25 11:09:16;;;;;;;;;;;;;;;27.81;26.65;98977.81;5090024;28;19917;-42
2023/03/25 11:11:42;;;;;;;;;;;;;;;26.60;28.05;98974.03;5090244;28;20048;-43
2023/03/25 11:14:09;;;;;;;;;;;;;;;27.15;26.98;98967.63;5090323;28;19951;-43
2023/03/25 11:16:50;;;;;;;;;;;;;;;28.08;26.16;98965.53;5088196;28;20011;-41
2023/03/25 11:19:24;;;;;;;;;;;;;;;27.43;27.25;98967.88;5089973;28;19913;-42
2023/03/25 11:21:58;;;;;;;;;;;;;;;27.17;27.52;98948.97;5090106;28;19916;-43
2023/03/25 11:24:28;;;;;;;;;;;;;;;28.02;26.30;98955.91;5090391;28;19932;-41
2023/03/25 11:26:53;;;;;;;;;;;;;;;28.20;26.03;98944.81;5090121;28;19912;-41
2023/03/25 11:29:22;;;;;;;;;;;;;;;27.03;27.52;98937.50;5089318;28;19927;-42
2023/03/25 11:31:55;;;;;;;;;;;;;;;28.03;26.40;98937.59;5091815;28;19918;-43
2023/03/25 11:34:21;;;;;;;;;;;;;;;28.82;24.82;98932.69;5093155;28;19912;-44
2023/03/25 11:37:00;;;;;;;;;;;;;;;29.28;23.99;98924.28;5093267;28;20232;-44
2023/03/25 11:39:29;;;;;;;;;;;;;;;28.03;25.60;98918.47;5093442;28;19920;-43
2023/03/25 11:41:54;;;;;;;;;;;;;;;28.55;24.95;98922.47;5093038;28;19965;-43
2023/03/25 11:44:30;;;;;;;;;;;;;;;28.74;25.03;98919.16;5093227;28;20516;-43
2023/03/25 11:47:00;;;;;;;;;;;;;;;29.55;24.44;98903.50;5093463;28;19912;-42
2023/03/25 11:49:28;;;;;;;;;;;;;;;29.91;23.52;98898.16;5093452;28;20006;-42
2023/03/25 11:52:00;;;;;;;;;;;;;;;29.75;24.31;98896.22;5093509;28;20355;-42
2023/03/25 11:54:26;;;;;;;;;;;;;;;30.05;24.20;98884.03;5093346;28;20324;-43
2023/03/25 11:56:52;;;;;;;;;;;;;;;29.82;23.85;98877.22;5093160;28;19919;-43
2023/03/25 11:59:22;;;;;;;;;;;;;;;29.46;24.25;98878.19;5093069;28;20519;-42
2023/03/25 12:01:49;;;;;;;;;;;;;;;29.06;24.93;98879.03;5092760;28;19913;-42
2023/03/25 12:04:17;;;;;;;;;;;;;;;29.52;23.96;98865.81;5093304;28;19916;-42
2023/03/25 12:07:01;;;;;;;;;;;;;;;29.70;24.27;98868.22;5092547;28;20001;-43
2023/03/25 12:09:28;;;;;;;;;;;;;;;29.72;24.01;98866.75;5092357;28;19998;-43
2023/03/25 12:11:59;;;;;;;;;;;;;;;28.64;24.52;98861.00;5091930;28;19919;-42
2023/03/25 12:14:57;;;;;;;;;;;;;;;27.36;25.71;98861.13;5092857;28;19918;-43
2023/03/25 12:17:49;;;;;;;;;;;;;;;27.83;25.52;98857.22;5069498;28;19912;-42
2023/03/25 12:20:14;;;;;;;;;;;;;;;28.76;25.01;98846.50;5091705;28;19912;-43
2023/03/25 12:22:58;;;;;;;;;;;;;;;29.43;23.79;98840.53;5091345;28;19973;-41
2023/03/25 12:25:25;;;;;;;;;;;;;;;29.54;23.96;98796.97;5091830;28;19924;-43
2023/03/25 12:27:51;;;;;;;;;;;;;;;30.26;23.01;98846.13;5091607;28;19924;-43
2023/03/25 12:30:28;;;;;;;;;;;;;;;29.82;23.07;98836.09;5091646;28;19924;-43
2023/03/25 12:33:11;;;;;;;;;;;;;;;28.55;24.37;98804.81;5091758;28;20392;-42
2023/03/25 12:35:48;;;;;;;;;;;;;;;28.94;24.49;98835.25;5091529;28;20011;-43
2023/03/25 12:38:33;;;;;;;;;;;;;;;29.12;24.05;98822.84;5091314;28;19912;-42
2023/03/25 12:41:01;;;;;;;;;;;;;;;28.89;24.46;98830.81;5091446;28;19916;-43
2023/03/25 12:43:41;;;;;;;;;;;;;;;28.45;25.29;98820.53;5089003;28;20357;-43
2023/03/25 12:46:21;;;;;;;;;;;;;;;28.57;25.08;98818.94;5089941;28;19916;-41
2023/03/25 12:48:55;;;;;;;;;;;;;;;27.95;26.03;98813.53;5090407;28;20019;-42
2023/03/25 12:51:46;;;;;;;;;;;;;;;27.97;26.45;98808.53;5091025;28;20380;-41
2023/03/25 12:54:20;;;;;;;;;;;;;;;27.37;26.70;98802.63;5090744;28;19995;-42
2023/03/25 12:56:59;;;;;;;;;;;;;;;28.00;25.74;98794.16;5090877;28;19945;-42